createdAt,value
2022-08-05T00:00:03.663Z,9.718747
2022-08-05T00:01:25.225Z,9.718678
2022-08-05T00:02:07.765Z,9.718811
2022-08-05T00:03:04.635Z,9.719216
2022-08-05T00:04:03.667Z,9.719185
2022-08-05T00:05:05.916Z,9.718700
2022-08-05T00:06:22.098Z,9.718452
2022-08-05T00:07:27.019Z,9.718349
2022-08-05T00:08:04.741Z,9.718287
2022-08-05T00:09:03.576Z,9.718201
2022-08-05T00:10:03.563Z,9.718332
2022-08-05T00:11:03.588Z,9.718350
2022-08-05T00:12:03.559Z,9.718372
2022-08-05T00:13:03.543Z,9.718540
2022-08-05T00:14:12.887Z,9.718580
2022-08-05T00:15:54.404Z,9.718514
2022-08-05T00:16:04.517Z,9.718493
2022-08-05T00:17:03.507Z,9.718444
2022-08-05T00:18:03.503Z,9.718107
2022-08-05T00:19:03.530Z,9.718104
2022-08-05T00:20:03.480Z,9.718117
2022-08-05T00:21:03.450Z,9.718349
2022-08-05T00:22:03.448Z,9.718434
2022-08-05T00:23:12.917Z,9.718137
2022-08-05T00:24:09.846Z,9.718033
2022-08-05T00:25:03.451Z,9.717998
2022-08-05T00:26:03.429Z,9.717739
2022-08-05T00:27:04.695Z,9.718060
2022-08-05T00:28:04.389Z,9.718148
2022-08-05T00:29:03.386Z,9.718447
2022-08-05T00:30:35.293Z,9.718731
2022-08-05T00:31:04.619Z,9.718731
2022-08-05T00:32:13.476Z,9.718731
2022-08-05T00:33:04.339Z,9.718731
2022-08-05T00:34:53.953Z,9.718731
2022-08-05T00:35:07.621Z,9.718731
2022-08-05T00:36:15.072Z,9.718731
2022-08-05T00:37:09.928Z,9.718731
2022-08-05T00:38:04.284Z,9.718731
2022-08-05T00:39:04.335Z,9.718731
2022-08-05T00:40:03.298Z,9.718731
2022-08-05T00:41:03.277Z,9.718999
2022-08-05T00:42:03.274Z,9.718958
2022-08-05T00:43:07.420Z,9.719018
2022-08-05T00:44:03.243Z,9.719073
2022-08-05T00:45:03.214Z,9.719025
2022-08-05T00:46:03.220Z,9.718971
2022-08-05T00:47:04.144Z,9.719085
2022-08-05T00:48:05.574Z,9.719031
2022-08-05T00:49:03.182Z,9.719028
2022-08-05T00:50:03.178Z,9.719076
2022-08-05T00:51:08.785Z,9.719129
2022-08-05T00:52:04.180Z,9.719133
2022-08-05T00:53:03.142Z,9.718954
2022-08-05T00:54:04.142Z,9.718981
2022-08-05T00:55:03.130Z,9.719039
2022-08-05T00:56:03.121Z,9.719069
2022-08-05T00:57:03.121Z,9.719073
2022-08-05T00:58:03.088Z,9.719128
2022-08-05T00:59:03.093Z,9.719087
2022-08-05T01:00:03.075Z,9.719132
2022-08-05T01:01:03.140Z,9.718925
2022-08-05T01:02:03.049Z,9.718932
2022-08-05T01:03:03.060Z,9.719078
2022-08-05T01:04:03.030Z,9.719075
2022-08-05T01:05:03.022Z,9.718992
2022-08-05T01:06:05.363Z,9.719286
2022-08-05T01:07:05.173Z,9.719111
2022-08-05T01:08:41.504Z,9.719252
2022-08-05T01:09:03.977Z,9.719276
2022-08-05T01:10:02.982Z,9.719032
2022-08-05T01:11:03.989Z,9.719162
2022-08-05T01:12:18.108Z,9.719190
2022-08-05T01:13:12.852Z,9.719203
2022-08-05T01:14:03.940Z,9.719207
2022-08-05T01:15:04.065Z,9.719184
2022-08-05T01:16:02.950Z,9.719396
2022-08-05T01:17:02.911Z,9.719403
2022-08-05T01:18:02.895Z,9.719359
2022-08-05T01:19:02.921Z,9.719310
2022-08-05T01:20:03.707Z,9.719178
2022-08-05T01:21:03.896Z,9.719131
2022-08-05T01:22:03.854Z,9.719034
2022-08-05T01:23:14.399Z,9.719227
2022-08-05T01:24:14.155Z,9.719195
2022-08-05T01:25:04.491Z,9.719125
2022-08-05T01:26:02.816Z,9.719112
2022-08-05T01:27:17.635Z,9.719153
2022-08-05T01:28:03.787Z,9.719219
2022-08-05T01:29:05.100Z,9.719136
2022-08-05T01:30:02.776Z,9.719313
2022-08-05T01:31:02.975Z,9.718932
2022-08-05T01:32:02.812Z,9.718893
2022-08-05T01:33:02.746Z,9.719131
2022-08-05T01:34:02.748Z,9.719287
2022-08-05T01:35:02.731Z,9.719233
2022-08-05T01:36:03.719Z,9.719238
2022-08-05T01:37:02.733Z,9.719201
2022-08-05T01:38:02.699Z,9.719181
2022-08-05T01:39:02.834Z,9.719185
2022-08-05T01:40:02.743Z,9.719063
2022-08-05T01:41:02.665Z,9.719281
2022-08-05T01:42:02.670Z,9.719393
2022-08-05T01:43:02.670Z,9.719269
2022-08-05T01:44:02.809Z,9.719283
2022-08-05T01:45:03.238Z,9.719316
2022-08-05T01:46:07.423Z,9.719125
2022-08-05T01:47:05.226Z,9.719311
2022-08-05T01:48:02.593Z,9.719319
2022-08-05T01:49:02.609Z,9.719196
2022-08-05T01:50:03.605Z,9.719222
2022-08-05T01:51:12.054Z,9.719198
2022-08-05T01:52:17.448Z,9.719311
2022-08-05T01:53:03.890Z,9.719346
2022-08-05T01:54:02.540Z,9.719197
2022-08-05T01:55:02.533Z,9.719357
2022-08-05T01:56:04.323Z,9.719330
2022-08-05T01:58:10.552Z,9.719357
2022-08-05T01:58:12.657Z,9.719438
2022-08-05T01:59:03.492Z,9.719436
2022-08-05T02:00:02.490Z,9.719385
2022-08-05T02:01:02.486Z,9.719272
2022-08-05T02:02:02.508Z,9.719135
2022-08-05T02:03:03.673Z,9.719041
2022-08-05T02:04:02.439Z,9.719283
2022-08-05T02:05:03.234Z,9.719318
2022-08-05T02:06:03.560Z,9.719274
2022-08-05T02:07:03.581Z,9.719096
2022-08-05T02:08:02.445Z,9.718980
2022-08-05T02:09:02.394Z,9.719054
2022-08-05T02:10:02.405Z,9.719076
2022-08-05T02:11:02.395Z,9.718966
2022-08-05T02:12:02.370Z,9.718982
2022-08-05T02:13:02.375Z,9.719101
2022-08-05T02:14:02.373Z,9.719192
2022-08-05T02:15:03.082Z,9.719245
2022-08-05T02:16:02.321Z,9.719374
2022-08-05T02:17:02.341Z,9.719308
2022-08-05T02:18:32.276Z,9.719028
2022-08-05T02:19:07.225Z,9.719282
2022-08-05T02:20:02.290Z,9.719357
2022-08-05T02:21:02.269Z,9.719372
2022-08-05T02:22:02.312Z,9.719185
2022-08-05T02:23:02.257Z,9.719356
2022-08-05T02:24:02.257Z,9.719117
2022-08-05T02:25:02.269Z,9.719157
2022-08-05T02:26:02.228Z,9.719003
2022-08-05T02:27:09.913Z,9.719090
2022-08-05T02:28:08.670Z,9.719156
2022-08-05T02:29:04.022Z,9.719238
2022-08-05T02:30:02.191Z,9.719274
2022-08-05T02:31:02.196Z,9.719216
2022-08-05T02:32:04.728Z,9.719091
2022-08-05T02:33:02.159Z,9.719238
2022-08-05T02:34:02.151Z,9.719366
2022-08-05T02:35:13.570Z,9.719326
2022-08-05T02:36:03.134Z,9.719260
2022-08-05T02:37:02.151Z,9.719159
2022-08-05T02:38:02.278Z,9.719215
2022-08-05T02:39:02.245Z,9.719377
2022-08-05T02:40:02.101Z,9.719190
2022-08-05T02:41:14.502Z,9.719138
2022-08-05T02:42:03.095Z,9.719092
2022-08-05T02:43:02.072Z,9.719226
2022-08-05T02:44:06.965Z,9.719201
2022-08-05T02:45:02.047Z,9.719179
2022-08-05T02:46:02.039Z,9.719075
2022-08-05T02:47:02.074Z,9.719115
2022-08-05T02:48:11.828Z,9.719126
2022-08-05T02:49:03.006Z,9.719156
2022-08-05T02:50:01.998Z,9.719238
2022-08-05T02:51:02.023Z,9.719132
2022-08-05T02:52:03.665Z,9.719217
2022-08-05T02:53:01.969Z,9.719172
2022-08-05T02:54:03.965Z,9.719171
2022-08-05T02:55:05.541Z,9.719226
2022-08-05T02:56:02.062Z,9.719161
2022-08-05T02:57:01.928Z,9.719253
2022-08-05T02:58:11.988Z,9.719209
2022-08-05T02:59:02.911Z,9.719241
2022-08-05T03:00:01.907Z,9.719254
2022-08-05T03:01:02.280Z,9.719235
2022-08-05T03:02:01.954Z,9.719233
2022-08-05T03:03:01.869Z,9.719272
2022-08-05T03:04:12.102Z,9.719203
2022-08-05T03:05:02.961Z,9.719247
2022-08-05T03:06:54.541Z,9.719282
2022-08-05T03:07:02.853Z,9.719305
2022-08-05T03:08:06.796Z,9.719283
2022-08-05T03:09:03.810Z,9.719248
2022-08-05T03:10:02.147Z,9.719284
2022-08-05T03:11:55.114Z,9.719248
2022-08-05T03:12:02.804Z,9.719254
2022-08-05T03:15:48.181Z,9.719902
2022-08-05T03:16:48.148Z,9.719497
2022-08-05T03:17:48.143Z,9.719003
2022-08-05T03:18:49.131Z,9.719673
2022-08-05T03:19:48.134Z,9.719460
2022-08-05T03:20:48.970Z,9.719237
2022-08-05T03:21:49.364Z,9.719221
2022-08-05T03:22:50.021Z,9.719316
2022-08-05T03:23:48.088Z,9.719316
2022-08-05T03:24:50.753Z,9.719036
2022-08-05T03:26:04.321Z,9.719103
2022-08-05T03:26:49.453Z,9.719230
2022-08-05T03:27:58.973Z,9.719230
2022-08-05T03:28:49.034Z,9.719230
2022-08-05T03:30:07.505Z,9.719230
2022-08-05T03:30:49.001Z,9.718980
2022-08-05T03:31:57.294Z,9.718659
2022-08-05T03:32:48.979Z,9.719038
2022-08-05T03:33:52.760Z,9.719322
2022-08-05T03:34:51.047Z,9.719049
2022-08-05T03:35:47.955Z,9.719416
2022-08-05T03:36:47.948Z,9.719318
2022-08-05T03:37:47.960Z,9.719180
2022-08-05T03:38:52.545Z,9.719082
2022-08-05T03:40:00.971Z,9.719202
2022-08-05T03:40:49.001Z,9.719041
2022-08-05T03:41:47.881Z,9.718922
2022-08-05T03:42:51.687Z,9.718957
2022-08-05T03:44:10.043Z,9.719030
2022-08-05T03:44:48.876Z,9.718931
2022-08-05T03:45:57.254Z,9.718894
2022-08-05T03:46:47.883Z,9.719072
2022-08-05T03:47:47.857Z,9.719054
2022-08-05T03:48:47.834Z,9.719154
2022-08-05T03:49:51.375Z,9.719051
2022-08-05T03:50:47.806Z,9.719100
2022-08-05T03:52:36.555Z,9.719112
2022-08-05T03:55:50.833Z,9.719028
2022-08-05T03:55:52.188Z,9.719040
2022-08-05T03:55:53.788Z,9.719025
2022-08-05T03:56:04.360Z,9.719022
2022-08-05T03:56:50.043Z,9.719016
2022-08-05T03:57:48.068Z,9.719023
2022-08-05T03:58:47.726Z,9.718971
2022-08-05T03:59:54.900Z,9.718986
2022-08-05T04:00:51.364Z,9.719039
2022-08-05T04:01:47.735Z,9.719063
2022-08-05T04:02:51.976Z,9.719015
2022-08-05T04:04:09.098Z,9.719058
2022-08-05T04:04:48.696Z,9.718987
2022-08-05T04:05:47.656Z,9.719006
2022-08-05T04:06:51.356Z,9.719034
2022-08-05T04:07:57.232Z,9.719074
2022-08-05T04:08:48.676Z,9.719079
2022-08-05T04:09:53.019Z,9.719085
2022-08-05T04:10:48.619Z,9.719050
2022-08-05T04:11:52.324Z,9.719065
2022-08-05T04:12:47.605Z,9.719030
2022-08-05T04:13:49.692Z,9.719101
2022-08-05T04:14:47.587Z,9.719066
2022-08-05T04:16:02.936Z,9.719102
2022-08-05T04:16:48.576Z,9.719073
2022-08-05T04:17:56.307Z,9.719005
2022-08-05T04:18:48.539Z,9.718942
2022-08-05T04:19:54.536Z,9.718953
2022-08-05T04:20:48.523Z,9.719031
2022-08-05T04:22:09.086Z,9.719048
2022-08-05T04:22:48.501Z,9.719178
2022-08-05T04:24:05.185Z,9.719115
2022-08-05T04:24:52.932Z,9.718988
2022-08-05T04:26:00.399Z,9.718972
2022-08-05T04:26:48.451Z,9.719016
2022-08-05T04:27:56.840Z,9.719049
2022-08-05T04:28:51.210Z,9.719102
2022-08-05T04:29:47.418Z,9.719172
2022-08-05T04:30:48.010Z,9.719188
2022-08-05T04:31:48.516Z,9.719153
2022-08-05T04:32:47.430Z,9.719211
2022-08-05T04:34:19.082Z,9.719123
2022-08-05T04:34:48.368Z,9.719126
2022-08-05T04:36:16.715Z,9.719194
2022-08-05T04:36:50.231Z,9.719186
2022-08-05T04:38:01.124Z,9.719192
2022-08-05T04:38:50.958Z,9.719355
2022-08-05T04:39:52.910Z,9.719275
2022-08-05T04:40:50.621Z,9.719226
2022-08-05T04:41:48.237Z,9.719188
2022-08-05T04:42:47.344Z,9.719189
2022-08-05T04:43:51.987Z,9.719011
2022-08-05T04:44:48.279Z,9.719057
2022-08-05T04:45:48.878Z,9.719073
2022-08-05T04:46:47.249Z,9.719139
2022-08-05T04:47:47.375Z,9.719117
2022-08-05T04:48:47.260Z,9.719000
2022-08-05T04:50:02.907Z,9.719031
2022-08-05T04:51:02.887Z,9.718973
2022-08-05T04:51:48.200Z,9.719102
2022-08-05T04:52:47.206Z,9.719132
2022-08-05T04:53:47.198Z,9.719256
2022-08-05T04:54:47.190Z,9.719164
2022-08-05T04:56:15.345Z,9.719151
2022-08-05T04:56:48.170Z,9.719104
2022-08-05T04:57:47.684Z,9.719177
2022-08-05T04:58:48.128Z,9.719151
2022-08-05T04:59:48.025Z,9.719218
2022-08-05T05:00:47.164Z,9.719266
2022-08-05T05:02:07.816Z,9.719116
2022-08-05T05:02:48.109Z,9.719069
2022-08-05T05:03:47.094Z,9.719112
2022-08-05T05:04:49.909Z,9.719130
2022-08-05T05:06:39.292Z,9.719107
2022-08-05T05:06:49.280Z,9.719115
2022-08-05T05:07:56.053Z,9.719036
2022-08-05T05:08:49.923Z,9.719031
2022-08-05T05:09:47.028Z,9.719079
2022-08-05T05:10:55.848Z,9.719130
2022-08-05T05:11:53.041Z,9.719194
2022-08-05T05:12:48.008Z,9.719092
2022-08-05T05:13:46.976Z,9.719120
2022-08-05T05:14:50.635Z,9.719100
2022-08-05T05:15:57.577Z,9.719093
2022-08-05T05:16:47.984Z,9.719135
2022-08-05T05:17:56.511Z,9.719138
2022-08-05T05:19:02.739Z,9.719201
2022-08-05T05:19:47.929Z,9.719167
2022-08-05T05:20:46.927Z,9.719124
2022-08-05T05:21:46.893Z,9.719151
2022-08-05T05:22:46.914Z,9.719112
2022-08-05T05:24:04.075Z,9.719169
2022-08-05T05:24:56.822Z,9.719046
2022-08-05T05:25:47.953Z,9.719074
2022-08-05T05:26:46.854Z,9.719041
2022-08-05T05:27:48.758Z,9.719085
2022-08-05T05:28:47.861Z,9.719108
2022-08-05T05:30:04.847Z,9.719209
2022-08-05T05:30:49.729Z,9.719189
2022-08-05T05:31:46.794Z,9.719097
2022-08-05T05:32:46.807Z,9.719030
2022-08-05T05:33:59.182Z,9.719084
2022-08-05T05:34:47.766Z,9.719136
2022-08-05T05:35:47.379Z,9.719175
2022-08-05T05:36:47.189Z,9.719175
2022-08-05T05:37:59.954Z,9.719203
2022-08-05T05:38:47.770Z,9.719277
2022-08-05T05:39:46.729Z,9.719245
2022-08-05T05:40:50.099Z,9.719182
2022-08-05T05:41:54.083Z,9.719174
2022-08-05T05:42:48.680Z,9.719159
2022-08-05T05:43:57.450Z,9.719187
2022-08-05T05:44:47.695Z,9.719176
2022-08-05T05:45:48.425Z,9.719296
2022-08-05T05:46:46.654Z,9.719219
2022-08-05T05:48:06.501Z,9.719171
2022-08-05T05:48:47.778Z,9.719005
2022-08-05T05:49:46.615Z,9.718954
2022-08-05T05:50:47.664Z,9.718826
2022-08-05T05:51:49.997Z,9.718882
2022-08-05T05:52:46.677Z,9.719075
2022-08-05T05:53:57.996Z,9.719032
2022-08-05T05:54:50.920Z,9.718994
2022-08-05T05:55:51.571Z,9.719075
2022-08-05T05:56:47.587Z,9.718982
2022-08-05T05:57:52.691Z,9.719046
2022-08-05T05:58:46.523Z,9.719047
2022-08-05T05:59:46.508Z,9.718802
2022-08-05T06:00:46.594Z,9.718512
2022-08-05T06:01:57.534Z,9.718495
2022-08-05T06:02:47.481Z,9.718697
2022-08-05T06:04:00.648Z,9.719116
2022-08-05T06:04:49.168Z,9.718944
2022-08-05T06:05:46.458Z,9.719104
2022-08-05T06:06:49.149Z,9.719095
2022-08-05T06:08:01.378Z,9.719138
2022-08-05T06:08:49.220Z,9.719110
2022-08-05T06:10:00.084Z,9.719108
2022-08-05T06:10:52.642Z,9.719324
2022-08-05T06:11:59.645Z,9.719381
2022-08-05T06:12:47.387Z,9.719303
2022-08-05T06:13:53.632Z,9.719303
2022-08-05T06:14:46.367Z,9.719303
2022-08-05T06:16:31.066Z,9.719303
2022-08-05T06:16:47.349Z,9.719303
2022-08-05T06:17:52.950Z,9.719303
2022-08-05T06:18:46.340Z,9.719303
2022-08-05T06:19:57.015Z,9.719303
2022-08-05T06:20:47.874Z,9.719303
2022-08-05T06:21:49.933Z,9.719303
2022-08-05T06:22:47.313Z,9.719303
2022-08-05T06:23:46.294Z,9.719303
2022-08-05T06:24:48.269Z,9.719246
2022-08-05T06:26:12.763Z,9.719300
2022-08-05T06:26:52.361Z,9.719266
2022-08-05T06:28:11.537Z,9.719172
2022-08-05T06:28:46.231Z,9.718966
2022-08-05T06:38:58.471Z,9.719206
2022-08-05T06:39:58.416Z,9.719233
2022-08-05T06:40:58.415Z,9.719264
2022-08-05T06:41:58.891Z,9.719149
2022-08-05T06:42:58.395Z,9.719198
2022-08-05T06:44:00.634Z,9.719139
2022-08-05T06:44:58.369Z,9.719225
2022-08-05T06:46:04.083Z,9.719157
2022-08-05T06:46:59.372Z,9.719248
2022-08-05T06:48:44.358Z,9.719337
2022-08-05T06:48:59.250Z,9.719322
2022-08-05T06:50:00.807Z,9.719051
2022-08-05T06:50:58.326Z,9.719204
2022-08-05T06:51:58.306Z,9.719268
2022-08-05T06:52:58.762Z,9.719275
2022-08-05T06:53:59.300Z,9.719189
2022-08-05T06:54:58.288Z,9.719235
2022-08-05T06:55:58.277Z,9.719191
2022-08-05T06:57:58.043Z,9.718964
2022-08-05T06:58:11.660Z,9.719057
2022-08-05T06:58:58.256Z,9.719006
2022-08-05T06:59:58.399Z,9.719230
2022-08-05T07:00:59.291Z,9.719234
2022-08-05T07:01:58.208Z,9.719219
2022-08-05T07:02:58.201Z,9.719156
2022-08-05T07:03:58.195Z,9.719167
2022-08-05T07:04:58.206Z,9.719255
2022-08-05T07:05:58.183Z,9.719271
2022-08-05T07:06:58.218Z,9.719262
2022-08-05T07:07:58.165Z,9.718951
2022-08-05T07:08:59.044Z,9.719261
2022-08-05T07:09:58.576Z,9.719103
2022-08-05T07:10:58.134Z,9.719102
2022-08-05T07:12:00.489Z,9.719340
2022-08-05T07:12:58.115Z,9.719130
2022-08-05T07:13:59.735Z,9.719065
2022-08-05T07:14:58.112Z,9.719021
2022-08-05T07:16:01.623Z,9.719131
2022-08-05T07:17:56.580Z,9.719077
2022-08-05T07:18:08.303Z,9.719089
2022-08-05T07:19:00.071Z,9.719090
2022-08-05T07:20:31.277Z,9.719165
2022-08-05T07:21:04.849Z,9.719240
2022-08-05T07:22:00.479Z,9.719163
2022-08-05T07:22:58.021Z,9.719178
2022-08-05T07:23:58.022Z,9.719218
2022-08-05T07:24:58.024Z,9.719129
2022-08-05T07:25:57.996Z,9.719159
2022-08-05T07:26:58.002Z,9.719228
2022-08-05T07:28:03.932Z,9.719174
2022-08-05T07:28:59.960Z,9.719081
2022-08-05T07:30:24.043Z,9.719076
2022-08-05T07:30:58.946Z,9.719104
2022-08-05T07:31:57.930Z,9.719059
2022-08-05T07:32:57.997Z,9.719097
2022-08-05T07:33:59.839Z,9.719139
2022-08-05T07:34:58.691Z,9.719085
2022-08-05T07:36:19.356Z,9.719118
2022-08-05T07:36:58.882Z,9.719123
2022-08-05T07:37:57.901Z,9.719153
2022-08-05T07:38:57.887Z,9.719151
2022-08-05T07:40:27.027Z,9.719177
2022-08-05T07:41:00.399Z,9.719185
2022-08-05T07:42:14.609Z,9.719226
2022-08-05T07:42:58.858Z,9.719244
2022-08-05T07:43:57.826Z,9.719149
2022-08-05T07:44:57.813Z,9.719141
2022-08-05T07:45:58.741Z,9.719153
2022-08-05T07:46:58.791Z,9.719191
2022-08-05T07:47:57.788Z,9.719201
2022-08-05T07:49:01.679Z,9.719211
2022-08-05T07:49:58.765Z,9.719204
2022-08-05T07:50:57.760Z,9.719223
2022-08-05T07:51:57.763Z,9.719199
2022-08-05T07:52:57.737Z,9.719213
2022-08-05T07:53:57.742Z,9.719233
2022-08-05T07:54:57.717Z,9.719225
2022-08-05T07:56:06.412Z,9.719234
2022-08-05T07:57:13.575Z,9.719219
2022-08-05T07:58:03.171Z,9.719188
2022-08-05T07:58:59.229Z,9.719234
2022-08-05T07:59:57.687Z,9.719378
2022-08-05T08:00:57.687Z,9.719285
2022-08-05T08:01:58.011Z,9.719341
2022-08-05T08:03:15.088Z,9.719349
2022-08-05T08:03:58.628Z,9.719260
2022-08-05T08:04:57.654Z,9.719270
2022-08-05T08:05:57.605Z,9.719247
2022-08-05T08:06:57.603Z,9.719238
2022-08-05T08:08:00.256Z,9.719327
2022-08-05T08:08:57.582Z,9.719362
2022-08-05T08:09:57.574Z,9.719374
2022-08-05T08:10:57.572Z,9.719285
2022-08-05T08:12:00.095Z,9.719308
2022-08-05T08:12:58.532Z,9.719310
2022-08-05T08:14:00.775Z,9.719369
2022-08-05T08:14:57.534Z,9.719401
2022-08-05T08:16:34.569Z,9.719462
2022-08-05T08:16:58.508Z,9.719460
2022-08-05T08:17:57.524Z,9.719458
2022-08-05T08:18:57.492Z,9.719497
2022-08-05T08:20:21.994Z,9.719531
2022-08-05T08:21:02.872Z,9.719505
2022-08-05T08:21:58.470Z,9.719483
2022-08-05T08:22:57.467Z,9.719399
2022-08-05T08:24:03.843Z,9.719365
2022-08-05T08:25:03.385Z,9.719178
2022-08-05T08:26:00.698Z,9.719119
2022-08-05T08:26:58.416Z,9.719288
2022-08-05T08:27:57.410Z,9.719372
2022-08-05T08:29:02.261Z,9.719304
2022-08-05T08:30:04.021Z,9.719161
2022-08-05T08:30:58.397Z,9.719277
2022-08-05T08:31:57.366Z,9.719289
2022-08-05T08:32:57.368Z,9.719109
2022-08-05T08:33:57.399Z,9.719191
2022-08-05T08:34:57.333Z,9.719325
2022-08-05T08:36:18.399Z,9.719227
2022-08-05T08:37:04.572Z,9.719214
2022-08-05T08:37:59.311Z,9.719286
2022-08-05T08:38:57.562Z,9.719387
2022-08-05T08:39:57.345Z,9.719337
2022-08-05T08:40:57.312Z,9.719252
2022-08-05T08:41:59.964Z,9.719250
2022-08-05T08:42:57.409Z,9.719205
2022-08-05T08:45:18.193Z,9.719199
2022-08-05T08:45:20.090Z,9.719139
2022-08-05T08:45:58.261Z,9.719224
2022-08-05T08:46:57.238Z,9.719263
2022-08-05T08:48:06.805Z,9.719281
2022-08-05T08:49:06.213Z,9.719194
2022-08-05T08:50:22.509Z,9.719323
2022-08-05T08:51:22.493Z,9.719378
2022-08-05T08:52:03.820Z,9.719337
2022-08-05T08:52:58.202Z,9.719326
2022-08-05T08:53:57.166Z,9.719359
2022-08-05T08:54:57.793Z,9.719375
2022-08-05T08:56:02.813Z,9.719357
2022-08-05T08:56:57.141Z,9.719319
2022-08-05T08:57:57.958Z,9.719364
2022-08-05T08:58:57.147Z,9.719396
2022-08-05T08:59:57.097Z,9.719379
2022-08-05T09:00:57.200Z,9.719333
2022-08-05T09:02:01.135Z,9.719322
2022-08-05T09:02:57.082Z,9.719303
2022-08-05T09:03:58.322Z,9.719280
2022-08-05T09:05:16.372Z,9.719217
2022-08-05T09:06:08.881Z,9.719388
2022-08-05T09:06:58.300Z,9.719597
2022-08-05T09:07:59.052Z,9.719607
2022-08-05T09:08:57.016Z,9.719563
2022-08-05T09:09:57.056Z,9.719503
2022-08-05T09:10:57.017Z,9.719481
2022-08-05T09:12:02.259Z,9.719398
2022-08-05T09:13:04.469Z,9.719534
2022-08-05T09:14:09.570Z,9.719705
2022-08-05T09:15:04.749Z,9.719727
2022-08-05T09:15:56.964Z,9.719640
2022-08-05T09:16:56.964Z,9.719591
2022-08-05T09:17:56.961Z,9.719563
2022-08-05T09:18:56.938Z,9.719340
2022-08-05T09:20:02.927Z,9.719320
2022-08-05T09:20:57.922Z,9.719534
2022-08-05T09:22:22.226Z,9.719514
2022-08-05T09:23:04.827Z,9.719621
2022-08-05T09:24:02.092Z,9.719638
2022-08-05T09:24:58.883Z,9.719443
2022-08-05T09:26:00.091Z,9.719390
2022-08-05T09:26:58.787Z,9.719356
2022-08-05T09:28:04.599Z,9.719287
2022-08-05T09:28:57.862Z,9.719136
2022-08-05T09:29:56.832Z,9.719062
2022-08-05T09:30:56.822Z,9.719293
2022-08-05T09:32:40.407Z,9.719501
2022-08-05T09:32:58.024Z,9.719316
2022-08-05T09:33:56.816Z,9.719488
2022-08-05T09:34:56.784Z,9.719355
2022-08-05T09:35:56.774Z,9.719415
2022-08-05T09:36:59.749Z,9.719333
2022-08-05T09:38:12.808Z,9.719447
2022-08-05T09:38:57.797Z,9.719445
2022-08-05T09:39:56.823Z,9.719421
2022-08-05T09:40:56.731Z,9.719422
2022-08-05T09:41:56.737Z,9.719180
2022-08-05T09:42:56.701Z,9.719403
2022-08-05T09:43:56.700Z,9.719609
2022-08-05T09:45:03.139Z,9.719445
2022-08-05T09:46:06.225Z,9.719446
2022-08-05T09:46:58.026Z,9.719469
2022-08-05T09:47:57.441Z,9.719410
2022-08-05T09:49:07.625Z,9.719323
2022-08-05T09:50:01.973Z,9.719404
2022-08-05T09:50:57.641Z,9.719537
2022-08-05T09:51:56.653Z,9.719348
2022-08-05T09:52:56.608Z,9.719167
2022-08-05T09:53:59.143Z,9.719471
2022-08-05T09:54:56.607Z,9.719289
2022-08-05T09:56:04.808Z,9.719157
2022-08-05T09:57:01.598Z,9.719191
2022-08-05T09:57:58.646Z,9.719384
2022-08-05T09:58:56.619Z,9.719415
2022-08-05T09:59:56.554Z,9.719296
2022-08-05T10:00:56.544Z,9.719419
2022-08-05T10:01:58.402Z,9.719310
2022-08-05T10:02:58.589Z,9.719201
2022-08-05T10:03:59.545Z,9.719268
2022-08-05T10:04:56.505Z,9.719276
2022-08-05T10:05:56.525Z,9.719269
2022-08-05T10:06:59.462Z,9.719335
2022-08-05T10:08:36.660Z,9.719216
2022-08-05T10:08:57.505Z,9.719303
2022-08-05T10:10:04.335Z,9.719380
2022-08-05T10:10:57.470Z,9.719364
2022-08-05T10:11:56.444Z,9.719323
2022-08-05T10:12:56.432Z,9.719296
2022-08-05T10:13:56.464Z,9.719236
2022-08-05T10:14:56.428Z,9.719267
2022-08-05T10:15:56.426Z,9.719124
2022-08-05T10:16:56.398Z,9.719082
2022-08-05T10:17:56.751Z,9.719307
2022-08-05T10:18:56.391Z,9.719290
2022-08-05T10:20:04.208Z,9.719245
2022-08-05T10:20:57.368Z,9.719244
2022-08-05T10:21:56.346Z,9.719249
2022-08-05T10:22:56.345Z,9.719215
2022-08-05T10:24:00.406Z,9.719239
2022-08-05T10:24:57.361Z,9.719257
2022-08-05T10:25:56.328Z,9.719209
2022-08-05T10:26:56.382Z,9.719151
2022-08-05T10:28:13.705Z,9.719202
2022-08-05T10:28:57.290Z,9.719245
2022-08-05T10:30:07.195Z,9.719151
2022-08-05T10:32:50.784Z,9.719176
2022-08-05T10:32:55.166Z,9.719251
2022-08-05T10:33:01.375Z,9.719168
2022-08-05T10:33:57.245Z,9.719143
2022-08-05T10:34:56.246Z,9.718955
2022-08-05T10:35:59.740Z,9.719127
2022-08-05T10:36:56.203Z,9.719464
2022-08-05T10:37:56.208Z,9.719218
2022-08-05T10:38:56.231Z,9.719112
2022-08-05T10:40:03.865Z,9.719032
2022-08-05T10:40:57.971Z,9.719181
2022-08-05T10:42:00.548Z,9.719245
2022-08-05T10:42:56.150Z,9.719369
2022-08-05T10:43:56.161Z,9.719351
2022-08-05T10:44:56.162Z,9.719206
2022-08-05T10:45:56.133Z,9.719216
2022-08-05T10:46:57.137Z,9.719111
2022-08-05T10:48:30.327Z,9.719154
2022-08-05T10:49:02.682Z,9.719163
2022-08-05T10:50:20.258Z,9.719188
2022-08-05T10:50:57.080Z,9.719288
2022-08-05T10:52:00.119Z,9.719228
2022-08-05T10:52:58.820Z,9.719211
2022-08-05T10:53:56.055Z,9.719217
2022-08-05T10:54:57.275Z,9.719094
2022-08-05T10:56:05.287Z,9.719121
2022-08-05T10:56:57.306Z,9.719153
2022-08-05T10:57:56.019Z,9.719117
2022-08-05T10:58:56.018Z,9.719184
2022-08-05T11:00:01.790Z,9.719084
2022-08-05T11:01:03.011Z,9.719150
2022-08-05T11:02:05.261Z,9.719148
2022-08-05T11:02:58.056Z,9.719202
2022-08-05T11:03:55.997Z,9.719265
2022-08-05T11:04:56.003Z,9.719231
2022-08-05T11:05:55.962Z,9.719193
2022-08-05T11:06:55.974Z,9.719121
2022-08-05T11:08:02.618Z,9.719171
2022-08-05T11:08:55.917Z,9.719170
2022-08-05T11:10:03.679Z,9.719189
2022-08-05T11:11:01.058Z,9.719162
2022-08-05T11:11:55.921Z,9.719110
2022-08-05T11:12:55.995Z,9.719075
2022-08-05T11:13:58.309Z,9.719177
2022-08-05T11:15:11.648Z,9.719122
2022-08-05T11:16:00.961Z,9.719191
2022-08-05T11:16:57.755Z,9.719202
2022-08-05T11:17:57.083Z,9.719193
2022-08-05T11:18:55.832Z,9.719211
2022-08-05T11:20:10.612Z,9.719188
2022-08-05T11:20:56.825Z,9.719107
2022-08-05T11:21:55.793Z,9.719308
2022-08-05T11:22:59.180Z,9.719288
2022-08-05T11:24:05.500Z,9.719212
2022-08-05T11:25:16.830Z,9.719291
2022-08-05T11:26:04.711Z,9.719158
2022-08-05T11:26:55.765Z,9.719074
2022-08-05T11:28:00.800Z,9.719089
2022-08-05T11:28:56.768Z,9.719098
2022-08-05T11:29:55.738Z,9.719298
2022-08-05T11:30:55.731Z,9.719023
2022-08-05T11:32:00.050Z,9.719068
2022-08-05T11:32:56.748Z,9.719135
2022-08-05T11:33:55.829Z,9.719049
2022-08-05T11:34:55.687Z,9.719292
2022-08-05T11:36:07.521Z,9.719234
2022-08-05T11:36:55.673Z,9.719371
2022-08-05T11:38:30.136Z,9.719508
2022-08-05T11:38:57.544Z,9.719507
2022-08-05T11:40:02.859Z,9.719503
2022-08-05T11:41:01.061Z,9.719582
2022-08-05T11:42:04.240Z,9.719712
2022-08-05T11:42:57.623Z,9.719415
2022-08-05T11:44:04.320Z,9.719586
2022-08-05T11:44:56.603Z,9.719531
2022-08-05T11:46:14.948Z,9.719524
2022-08-05T11:47:09.948Z,9.719534
2022-08-05T11:47:56.580Z,9.719857
2022-08-05T11:48:55.614Z,9.719487
2022-08-05T11:49:55.574Z,9.719457
2022-08-05T11:50:55.553Z,9.719861
2022-08-05T11:51:57.296Z,9.719234
2022-08-05T11:52:58.011Z,9.719550
2022-08-05T11:53:56.512Z,9.719785
2022-08-05T11:54:55.778Z,9.719309
2022-08-05T11:55:55.495Z,9.719228